Etusivu
METAR-TAF:

METAR-TAF

Lentoasemat :

Nanjing Lukoun kansainvälinen lentoasema

Nanjing, Kiina

Leveyspiiri: 32-00N, Pituuspiiri: 118-48E, korkeus merenpinnasta: 12 m

Tämänhetkinen sää

Tämä raportti tehtiin 1 tunti ja 25 minuuttia sitten, kello 11.00 UTC
tyyntä
Lämpötila 25°C
Kosteus 100%
Ilmanpaine 999 hPa
Näkyvyys: 4000 m
Muutamia pilviä 700 ft:n korkeudessa
Pilvistä 3000 ft:n korkeudessa
heikkoa sadetta, utua

METAR: ZSNJ 221100Z 00000MPS 4000 -RA BR FEW007 OVC030 25/25 Q0999 RERA BECMG TL1130 SHRA

Aika: 20:25 (12:25 UTC)

Sääennuste

Tämä raportti tehtiin 3 tuntia ja 23 minuuttia sitten, kello 09.02 UTC
Ennuste voimassa 22. päivästä klo 12 UTC - 23. päivään klo 12 UTC
Tuuli 8 kn lounaasta
Näkyvyys: 3000 m
Hajonneita pilviä 3000 ft:n korkeudessa
utua,

TAF: ZSNJ 220902Z 2212/2312 22004MPS 3000 BR BKN030 TX28/2306Z TN23/2221Z

Säähavainnot ja -ennusteet yli 4000 lentoasemalta (METAR- ja TAF-raportit).

Käytössä olevat sääasemat on merkitty karttaan keltaisilla ja punaisilla pisteillä.

Aseta hiiri pisteen päälle nähdäksesi sääaseman nimen.

Klikkaa sitten nähdäksesi säähavainnot ja -ennusteet.

Kartan vaihtaminen: klikkaa mustalla rastilla varustettuja vihreitä pisteitä, niin voit zoomata sisään; viivalla varustettua vihreää pistettä, niin voit zoomata ulos tai vihreitä nuolia, niin pääset viereisille kartoille.


METAR-TAF: